Time;durP1;ratioP1;P1;durP2;ratioP2;P2;SDS_P1;SDS_P2;PMS_P1;PMS_P2;Temp;Humidity;BMP_temperature;BMP_pressure;BME280_temperature;BME280_humidity;BME280_pressure;Samples;Min_cycle;Max_cycle;Signal;HPM_P1;HPM_P2
2023/08/16 00:02:20;;;;;;;115.05;56.35;;;20.50;84.60;;;;;;4979311;28;95725;-55
2023/08/16 00:04:46;;;;;;;114.25;56.33;;;20.50;85.00;;;;;;4981033;28;97779;-56
2023/08/16 00:07:11;;;;;;;113.93;56.47;;;20.50;84.80;;;;;;4981843;28;95393;-55
2023/08/16 00:09:38;;;;;;;114.35;56.60;;;20.50;84.60;;;;;;4980046;28;96623;-55
2023/08/16 00:12:05;;;;;;;114.35;56.78;;;20.50;84.80;;;;;;4987386;28;95738;-53
2023/08/16 00:14:30;;;;;;;114.47;56.50;;;20.50;84.60;;;;;;4980029;28;95099;-54
2023/08/16 00:16:57;;;;;;;113.30;56.33;;;20.50;84.50;;;;;;4983908;28;97264;-53
2023/08/16 00:19:23;;;;;;;114.28;56.65;;;20.50;84.40;;;;;;4976387;28;96516;-54
2023/08/16 00:21:49;;;;;;;113.72;56.40;;;20.50;84.60;;;;;;4979179;28;99350;-54
2023/08/16 00:24:14;;;;;;;113.40;56.08;;;20.50;84.70;;;;;;4977346;28;96063;-54
2023/08/16 00:26:40;;;;;;;113.60;56.47;;;20.50;84.40;;;;;;4961969;28;96348;-51
2023/08/16 00:29:06;;;;;;;114.35;56.53;;;20.50;84.70;;;;;;4980586;28;97913;-56
2023/08/16 00:31:31;;;;;;;114.10;56.42;;;20.50;84.50;;;;;;4980413;28;99836;-55
2023/08/16 00:33:57;;;;;;;114.00;56.55;;;20.50;84.80;;;;;;4984511;28;96793;-54
2023/08/16 00:36:22;;;;;;;114.55;56.63;;;20.50;84.90;;;;;;4982194;28;97632;-51
2023/08/16 00:38:48;;;;;;;113.95;56.75;;;20.50;84.90;;;;;;4981761;28;96429;-51
2023/08/16 00:41:14;;;;;;;114.25;56.80;;;20.50;84.80;;;;;;4981476;28;96794;-53
2023/08/16 00:43:40;;;;;;;113.82;56.45;;;20.50;84.80;;;;;;4989076;28;96581;-56
2023/08/16 00:46:11;;;;;;;113.38;56.58;;;20.40;84.90;;;;;;4980898;28;97879;-54
2023/08/16 00:48:39;;;;;;;112.88;56.40;;;20.40;84.90;;;;;;4988720;28;98521;-54
2023/08/16 00:51:06;;;;;;;113.18;56.50;;;20.40;84.70;;;;;;4985323;28;96169;-57
2023/08/16 00:53:32;;;;;;;113.30;56.65;;;20.40;84.80;;;;;;4982623;28;95964;-53
2023/08/16 00:55:58;;;;;;;112.53;56.38;;;20.40;84.90;;;;;;4983077;28;95464;-55
2023/08/16 00:58:25;;;;;;;113.45;56.35;;;20.40;84.80;;;;;;4980393;28;95291;-56
2023/08/16 01:00:51;;;;;;;113.47;56.00;;;20.40;85.00;;;;;;4984749;28;97951;-52
2023/08/16 01:03:16;;;;;;;113.90;56.58;;;20.30;84.80;;;;;;4982520;28;97300;-50
2023/08/16 01:05:42;;;;;;;114.63;56.47;;;20.30;84.80;;;;;;4984987;28;95487;-52
2023/08/16 01:08:08;;;;;;;113.32;56.22;;;20.30;84.70;;;;;;4977331;28;95218;-51
2023/08/16 01:10:51;;;;;;;112.75;56.35;;;20.30;84.70;;;;;;4983134;28;95398;-51
2023/08/16 01:13:26;;;;;;;114.07;56.88;;;20.30;84.70;;;;;;4981724;28;96111;-49
2023/08/16 01:15:54;;;;;;;112.18;56.28;;;20.30;84.80;;;;;;4980303;28;96010;-52
2023/08/16 01:18:22;;;;;;;114.05;57.03;;;20.30;85.10;;;;;;4987745;28;94763;-49
2023/08/16 01:20:48;;;;;;;112.45;56.50;;;20.30;84.60;;;;;;4980011;28;95625;-49
2023/08/16 01:23:31;;;;;;;114.60;56.83;;;20.20;84.70;;;;;;4977924;28;94815;-51
2023/08/16 01:26:16;;;;;;;113.93;56.75;;;20.20;85.00;;;;;;4981761;28;95725;-53
2023/08/16 01:28:44;;;;;;;114.03;56.72;;;20.20;85.00;;;;;;4981538;28;96133;-52
2023/08/16 01:31:10;;;;;;;115.70;57.20;;;20.20;85.30;;;;;;4982256;28;95013;-53
2023/08/16 01:33:36;;;;;;;115.40;56.97;;;20.10;85.00;;;;;;4981005;28;95098;-51
2023/08/16 01:36:01;;;;;;;113.90;56.40;;;20.10;85.00;;;;;;4979256;28;96286;-49
2023/08/16 01:38:28;;;;;;;116.07;56.63;;;20.10;85.60;;;;;;4980626;28;96190;-50
2023/08/16 01:41:01;;;;;;;114.68;56.75;;;20.10;85.20;;;;;;4978901;28;97693;-51
2023/08/16 01:43:29;;;;;;;112.82;56.72;;;20.10;85.70;;;;;;4988065;28;96456;-52
2023/08/16 01:45:55;;;;;;;114.07;56.80;;;20.10;85.00;;;;;;4986047;28;95360;-49
2023/08/16 01:48:23;;;;;;;114.85;57.00;;;20.10;85.20;;;;;;4979322;28;96701;-49
2023/08/16 01:50:49;;;;;;;114.28;57.40;;;20.10;85.20;;;;;;4981495;28;95796;-50
2023/08/16 01:53:15;;;;;;;114.78;57.25;;;20.10;85.30;;;;;;4978651;28;95251;-50
2023/08/16 01:55:40;;;;;;;115.03;57.63;;;20.00;85.10;;;;;;4961052;28;95664;-51
2023/08/16 01:58:06;;;;;;;113.80;57.40;;;20.00;85.30;;;;;;4980154;28;95028;-49
2023/08/16 02:00:32;;;;;;;114.10;57.50;;;20.00;85.40;;;;;;4985249;28;95719;-50
2023/08/16 02:02:58;;;;;;;115.13;57.95;;;20.00;85.40;;;;;;4988702;28;95028;-52
2023/08/16 02:05:23;;;;;;;114.63;57.03;;;20.00;86.30;;;;;;4988822;28;95365;-51
2023/08/16 02:07:49;;;;;;;115.75;57.70;;;19.90;85.50;;;;;;4989845;28;94456;-50
2023/08/16 02:10:14;;;;;;;113.10;57.13;;;19.90;85.90;;;;;;4980784;28;96415;-51
2023/08/16 02:12:40;;;;;;;113.85;57.22;;;19.90;85.80;;;;;;4983575;28;95867;-50
2023/08/16 02:15:06;;;;;;;113.47;57.38;;;19.90;85.70;;;;;;4979532;28;96679;-48
2023/08/16 02:17:32;;;;;;;115.45;57.65;;;19.90;85.70;;;;;;4980196;28;96914;-51
2023/08/16 02:19:57;;;;;;;114.28;57.15;;;19.90;85.70;;;;;;4983186;28;94977;-48
2023/08/16 02:22:24;;;;;;;113.70;57.20;;;19.80;85.60;;;;;;4979779;28;96228;-48
2023/08/16 02:24:51;;;;;;;115.45;58.05;;;19.80;85.70;;;;;;4984745;28;97026;-49
2023/08/16 02:27:16;;;;;;;114.03;57.50;;;19.80;85.80;;;;;;4984334;28;98533;-49
2023/08/16 02:29:42;;;;;;;113.97;57.63;;;19.80;86.00;;;;;;4985903;28;95155;-51
2023/08/16 02:32:08;;;;;;;114.05;57.42;;;19.80;86.20;;;;;;4982247;28;95384;-50
2023/08/16 02:34:33;;;;;;;114.68;57.42;;;19.70;86.20;;;;;;4981767;28;96000;-51
2023/08/16 02:36:59;;;;;;;115.55;57.13;;;19.70;86.20;;;;;;4981689;28;98265;-51
2023/08/16 02:39:25;;;;;;;114.13;57.08;;;19.70;86.30;;;;;;4978646;28;97014;-51
2023/08/16 02:41:53;;;;;;;114.20;57.17;;;19.70;86.30;;;;;;4988915;28;95162;-52
2023/08/16 02:44:19;;;;;;;113.47;56.80;;;19.70;86.30;;;;;;4980425;28;94773;-52
2023/08/16 02:46:45;;;;;;;113.43;57.25;;;19.60;86.60;;;;;;4985670;28;94842;-49
2023/08/16 02:49:10;;;;;;;113.18;56.97;;;19.60;86.30;;;;;;4983456;28;98354;-50
2023/08/16 02:51:36;;;;;;;114.55;57.17;;;19.60;86.20;;;;;;4983792;28;100141;-52
2023/08/16 02:54:01;;;;;;;113.93;56.83;;;19.60;86.30;;;;;;4980519;28;99164;-49
2023/08/16 02:56:27;;;;;;;114.70;57.83;;;19.60;86.50;;;;;;4980227;28;95776;-51
2023/08/16 02:58:54;;;;;;;115.32;57.05;;;19.60;86.50;;;;;;4984341;28;95409;-51
2023/08/16 03:01:19;;;;;;;115.40;57.42;;;19.50;86.50;;;;;;4982586;28;97919;-51
2023/08/16 03:03:46;;;;;;;113.35;57.20;;;19.50;86.50;;;;;;4983459;28;95740;-51
2023/08/16 03:06:12;;;;;;;113.55;57.28;;;19.50;86.90;;;;;;4985012;28;96300;-49
2023/08/16 03:08:37;;;;;;;113.38;57.28;;;19.40;86.70;;;;;;4987322;28;95301;-51
2023/08/16 03:11:03;;;;;;;113.00;57.08;;;19.40;86.70;;;;;;4980227;28;96312;-51
2023/08/16 03:13:29;;;;;;;116.85;57.20;;;19.50;86.70;;;;;;4979099;28;97309;-50
2023/08/16 03:15:55;;;;;;;114.15;57.60;;;19.40;86.60;;;;;;4981374;28;100272;-52
2023/08/16 03:18:20;;;;;;;114.68;57.40;;;19.40;86.60;;;;;;4980025;28;94733;-50
2023/08/16 03:20:46;;;;;;;114.95;56.97;;;19.40;86.60;;;;;;4987978;28;94694;-48
2023/08/16 03:23:11;;;;;;;113.10;56.65;;;19.40;86.60;;;;;;4977930;28;97154;-53
2023/08/16 03:25:37;;;;;;;113.82;57.13;;;19.40;86.70;;;;;;4985551;28;95317;-56
2023/08/16 03:28:03;;;;;;;113.97;57.28;;;19.30;86.50;;;;;;4980744;28;98089;-56
2023/08/16 03:30:29;;;;;;;113.95;57.35;;;19.30;86.70;;;;;;4985670;28;96020;-57
2023/08/16 03:32:54;;;;;;;113.80;57.55;;;19.30;87.00;;;;;;4982169;28;95997;-56
2023/08/16 03:35:32;;;;;;;114.78;57.35;;;19.30;87.40;;;;;;4984951;28;95300;-55
2023/08/16 03:37:58;;;;;;;116.57;58.00;;;19.30;87.10;;;;;;4984055;28;98846;-54
2023/08/16 03:40:23;;;;;;;112.65;56.75;;;19.30;87.60;;;;;;4962156;28;100008;-54
2023/08/16 03:42:49;;;;;;;114.05;57.85;;;19.20;87.30;;;;;;4989151;28;96243;-55
2023/08/16 03:45:14;;;;;;;113.88;57.80;;;19.20;87.10;;;;;;4979507;28;95505;-56
2023/08/16 03:47:40;;;;;;;114.45;58.13;;;19.30;87.00;;;;;;4987189;28;94749;-55
2023/08/16 03:50:07;;;;;;;115.32;57.72;;;19.20;87.40;;;;;;4979301;28;97716;-53
2023/08/16 03:52:32;;;;;;;115.18;58.40;;;19.20;87.60;;;;;;4980888;28;98516;-53
2023/08/16 03:54:58;;;;;;;114.95;58.15;;;19.20;87.40;;;;;;4982086;28;98092;-59
2023/08/16 03:57:23;;;;;;;114.35;57.85;;;19.20;87.30;;;;;;4978229;28;94852;-51
2023/08/16 03:59:52;;;;;;;114.03;57.67;;;19.20;87.40;;;;;;4974330;28;100692;-49
2023/08/16 04:02:20;;;;;;;115.47;58.30;;;19.20;87.50;;;;;;4980878;28;96444;-56
2023/08/16 04:04:45;;;;;;;114.65;57.58;;;19.20;87.50;;;;;;4979659;28;100992;-56
2023/08/16 04:07:11;;;;;;;113.45;57.65;;;19.20;87.50;;;;;;4975738;28;95453;-57
2023/08/16 04:09:37;;;;;;;114.25;57.95;;;19.20;87.80;;;;;;4974585;28;99368;-53
2023/08/16 04:12:03;;;;;;;114.15;57.58;;;19.20;87.60;;;;;;4979504;28;96415;-56
2023/08/16 04:14:28;;;;;;;115.70;58.00;;;19.20;87.50;;;;;;4975979;28;99913;-53
2023/08/16 04:16:54;;;;;;;114.60;58.40;;;19.30;87.60;;;;;;4973598;28;98040;-51
2023/08/16 04:19:20;;;;;;;114.93;58.03;;;19.30;87.90;;;;;;4970694;28;96605;-55
2023/08/16 04:21:46;;;;;;;115.20;58.60;;;19.20;86.90;;;;;;4975139;28;96834;-54
2023/08/16 04:24:12;;;;;;;115.22;58.22;;;19.30;87.10;;;;;;4968958;28;96693;-57
2023/08/16 04:26:37;;;;;;;117.20;59.08;;;19.30;87.50;;;;;;4982067;28;95763;-55
2023/08/16 04:29:04;;;;;;;114.57;58.70;;;19.30;87.30;;;;;;4972583;28;100552;-52
2023/08/16 04:31:29;;;;;;;116.43;58.83;;;19.30;87.00;;;;;;4976372;28;95588;-51
2023/08/16 04:33:55;;;;;;;117.15;59.47;;;19.30;86.80;;;;;;4981401;28;94488;-52
2023/08/16 04:36:20;;;;;;;114.35;58.05;;;19.30;86.80;;;;;;4974955;28;98054;-48
2023/08/16 04:38:46;;;;;;;116.80;60.22;;;19.30;87.60;;;;;;4973974;28;95471;-51
2023/08/16 04:41:12;;;;;;;117.25;60.25;;;19.30;87.10;;;;;;4975233;28;96188;-51
2023/08/16 04:43:37;;;;;;;116.57;59.45;;;19.30;86.90;;;;;;4981343;28;95898;-50
2023/08/16 04:46:03;;;;;;;116.85;59.45;;;19.30;87.40;;;;;;4974675;28;97339;-51
2023/08/16 04:48:28;;;;;;;116.15;57.92;;;19.40;86.80;;;;;;4981037;28;95324;-48
2023/08/16 04:50:54;;;;;;;117.20;60.60;;;19.40;87.80;;;;;;4973818;28;96528;-50
2023/08/16 04:53:20;;;;;;;117.63;59.92;;;19.40;86.70;;;;;;4982662;28;97883;-52
2023/08/16 04:55:45;;;;;;;117.93;59.88;;;19.40;87.60;;;;;;4979087;28;96195;-48
2023/08/16 04:58:11;;;;;;;114.82;58.67;;;19.40;86.70;;;;;;4984740;28;95226;-49
2023/08/16 05:00:37;;;;;;;115.35;58.78;;;19.40;87.50;;;;;;4978401;28;100670;-50
2023/08/16 05:03:03;;;;;;;116.20;58.92;;;19.40;87.30;;;;;;4978320;28;95962;-51
2023/08/16 05:05:29;;;;;;;120.20;62.13;;;19.40;86.80;;;;;;4980621;28;96890;-52
2023/08/16 05:07:54;;;;;;;114.18;58.08;;;19.50;86.70;;;;;;4975556;28;95997;-50
2023/08/16 05:10:20;;;;;;;115.93;58.67;;;19.50;87.90;;;;;;4984975;28;95128;-51
2023/08/16 05:12:46;;;;;;;117.05;59.97;;;19.50;87.40;;;;;;4987714;28;96618;-53
2023/08/16 05:15:12;;;;;;;115.90;59.58;;;19.50;86.60;;;;;;4980708;28;96252;-48
2023/08/16 05:17:37;;;;;;;116.80;59.05;;;19.50;85.90;;;;;;4985023;28;94767;-50
2023/08/16 05:20:04;;;;;;;116.22;59.67;;;19.50;87.00;;;;;;4981604;28;98196;-50
2023/08/16 05:22:29;;;;;;;116.18;59.92;;;19.50;87.50;;;;;;4982885;28;94242;-49
2023/08/16 05:24:55;;;;;;;130.60;66.38;;;19.60;87.50;;;;;;4978407;28;95710;-50
2023/08/16 05:27:21;;;;;;;128.80;66.88;;;19.60;86.30;;;;;;4980895;28;96247;-51
2023/08/16 05:29:47;;;;;;;126.00;67.55;;;19.10;87.40;;;;;;4978263;28;96159;-49
2023/08/16 05:32:12;;;;;;;127.68;67.85;;;18.80;89.90;;;;;;4977424;28;95971;-52
2023/08/16 05:34:38;;;;;;;129.15;67.53;;;18.70;90.30;;;;;;4981931;28;94878;-53
2023/08/16 05:37:05;;;;;;;127.30;68.28;;;18.60;90.70;;;;;;4974130;28;96779;-50
2023/08/16 05:39:31;;;;;;;133.90;70.28;;;18.60;91.20;;;;;;4977008;28;96082;-48
2023/08/16 05:41:56;;;;;;;128.85;70.55;;;18.50;91.60;;;;;;4983529;28;95314;-49
2023/08/16 05:44:22;;;;;;;131.30;70.68;;;18.50;91.80;;;;;;4987810;28;95438;-52
2023/08/16 05:46:48;;;;;;;128.15;68.90;;;18.50;92.20;;;;;;4974661;28;94261;-49
2023/08/16 05:49:13;;;;;;;134.55;69.90;;;18.40;92.80;;;;;;4983816;28;95218;-51
2023/08/16 05:51:39;;;;;;;130.70;69.78;;;18.30;92.60;;;;;;4984734;28;98349;-52
2023/08/16 05:54:05;;;;;;;136.85;70.07;;;18.30;92.20;;;;;;4967712;28;95835;-51
2023/08/16 05:56:30;;;;;;;131.25;70.90;;;18.30;92.30;;;;;;4981000;28;95771;-51
2023/08/16 05:58:56;;;;;;;134.73;71.25;;;18.40;92.40;;;;;;4980573;28;96181;-45
2023/08/16 06:01:21;;;;;;;129.25;69.88;;;18.40;92.40;;;;;;4990098;28;95270;-46
2023/08/16 06:03:47;;;;;;;133.90;71.38;;;18.50;92.30;;;;;;4980772;28;94754;-43
2023/08/16 06:06:13;;;;;;;124.05;64.00;;;18.60;92.20;;;;;;4979207;28;95606;-48
2023/08/16 06:08:38;;;;;;;132.45;69.75;;;18.80;92.40;;;;;;4977821;28;96142;-46
2023/08/16 06:11:04;;;;;;;124.28;66.38;;;18.90;91.10;;;;;;4976090;28;94716;-51
2023/08/16 06:13:30;;;;;;;126.47;65.55;;;19.00;91.70;;;;;;4978949;28;94604;-51
2023/08/16 06:15:56;;;;;;;133.55;69.45;;;19.20;91.30;;;;;;4979574;28;95230;-49
2023/08/16 06:18:22;;;;;;;135.45;70.63;;;19.40;90.20;;;;;;4981888;28;96179;-49
2023/08/16 06:20:47;;;;;;;131.73;69.40;;;19.50;89.80;;;;;;4980939;28;95121;-51
2023/08/16 06:23:13;;;;;;;125.88;67.85;;;19.40;89.40;;;;;;4985700;28;95174;-49
2023/08/16 06:25:38;;;;;;;130.98;68.90;;;19.30;90.70;;;;;;4977048;28;95890;-55
2023/08/16 06:28:04;;;;;;;131.95;70.03;;;19.40;89.00;;;;;;4975284;28;95696;-54
2023/08/16 06:30:30;;;;;;;135.88;71.95;;;19.40;89.80;;;;;;4981618;28;99168;-49
2023/08/16 06:32:55;;;;;;;129.85;67.90;;;19.40;90.50;;;;;;4979316;28;96168;-46
2023/08/16 06:35:21;;;;;;;133.80;71.22;;;19.40;90.90;;;;;;4985529;28;94920;-49
2023/08/16 06:37:47;;;;;;;138.75;70.05;;;19.50;88.50;;;;;;4983583;28;95390;-47
2023/08/16 06:40:12;;;;;;;135.25;71.97;;;19.50;89.70;;;;;;4982054;28;95336;-51
2023/08/16 06:42:42;;;;;;;132.15;70.15;;;19.50;89.10;;;;;;4982490;28;96040;-50
2023/08/16 06:45:09;;;;;;;130.10;69.47;;;19.50;90.00;;;;;;4980918;28;94788;-48
2023/08/16 06:47:34;;;;;;;127.78;67.78;;;19.50;88.80;;;;;;4982417;28;95783;-51
2023/08/16 06:50:00;;;;;;;131.50;69.68;;;19.70;88.50;;;;;;4981114;28;95343;-47
2023/08/16 06:52:25;;;;;;;126.35;67.78;;;19.70;87.10;;;;;;4978282;28;100811;-47
2023/08/16 06:54:51;;;;;;;125.65;64.93;;;19.70;87.50;;;;;;4973856;28;94714;-49
2023/08/16 06:57:17;;;;;;;128.55;67.65;;;19.80;88.80;;;;;;4980328;28;95498;-47
2023/08/16 06:59:43;;;;;;;126.40;64.05;;;19.90;85.90;;;;;;4969683;28;95202;-55
2023/08/16 07:02:13;;;;;;;127.72;67.25;;;20.00;87.90;;;;;;4958960;28;96770;-54
2023/08/16 07:04:39;;;;;;;128.60;67.63;;;20.00;85.80;;;;;;4955797;28;95468;-55
2023/08/16 07:07:05;;;;;;;127.65;67.50;;;19.90;86.10;;;;;;4980594;28;96368;-56
2023/08/16 07:09:31;;;;;;;126.30;67.35;;;19.80;87.00;;;;;;4978860;28;97482;-49
2023/08/16 07:11:56;;;;;;;124.65;65.90;;;19.80;86.40;;;;;;4978641;28;96091;-52
2023/08/16 07:14:22;;;;;;;126.18;66.80;;;19.90;86.50;;;;;;4985856;28;95360;-53
2023/08/16 07:16:48;;;;;;;124.90;65.68;;;19.90;84.70;;;;;;4978417;28;99609;-55
2023/08/16 07:19:13;;;;;;;126.63;67.28;;;20.00;84.90;;;;;;4987906;28;97895;-52
2023/08/16 07:21:39;;;;;;;122.65;64.53;;;20.00;84.60;;;;;;4981870;28;96144;-56
2023/08/16 07:24:05;;;;;;;131.05;70.10;;;20.00;85.30;;;;;;4984317;28;94498;-52
2023/08/16 07:26:30;;;;;;;131.13;71.90;;;20.00;86.00;;;;;;4982760;28;94549;-52
2023/08/16 07:28:56;;;;;;;128.80;70.78;;;19.90;87.10;;;;;;4979543;28;98670;-53
2023/08/16 07:31:22;;;;;;;135.15;71.93;;;19.80;87.70;;;;;;4985893;28;95571;-57
2023/08/16 07:33:48;;;;;;;129.52;68.70;;;19.80;88.10;;;;;;4985754;28;95688;-54
2023/08/16 07:36:14;;;;;;;128.05;69.10;;;19.80;86.90;;;;;;4982211;28;99085;-50
2023/08/16 07:38:39;;;;;;;124.60;67.15;;;19.80;87.80;;;;;;4982396;28;95496;-51
2023/08/16 07:41:05;;;;;;;126.28;67.13;;;19.80;87.80;;;;;;4983573;28;95371;-52
2023/08/16 07:43:30;;;;;;;129.25;67.72;;;19.80;86.90;;;;;;4986503;28;95385;-52
2023/08/16 07:45:56;;;;;;;127.00;65.00;;;19.90;86.60;;;;;;4978826;28;95736;-50
2023/08/16 07:48:22;;;;;;;126.50;66.50;;;20.20;86.10;;;;;;4983719;28;97459;-57
2023/08/16 07:50:49;;;;;;;127.05;66.43;;;20.20;83.70;;;;;;4981923;28;96474;-58
2023/08/16 07:53:15;;;;;;;124.82;66.10;;;20.20;83.70;;;;;;4982721;28;95661;-57
2023/08/16 07:55:40;;;;;;;128.13;67.22;;;20.20;84.40;;;;;;4978036;28;96855;-48
2023/08/16 07:58:06;;;;;;;129.77;68.53;;;20.20;84.10;;;;;;4980853;28;96952;-49
2023/08/16 08:00:31;;;;;;;124.65;64.97;;;20.30;83.70;;;;;;4983185;28;99340;-54
2023/08/16 08:02:57;;;;;;;127.00;66.40;;;20.30;83.60;;;;;;4983143;28;95080;-53
2023/08/16 08:05:23;;;;;;;130.13;66.18;;;20.30;84.20;;;;;;4980667;28;98329;-47
2023/08/16 08:07:51;;;;;;;124.95;65.10;;;20.50;83.40;;;;;;4981062;28;96853;-46
2023/08/16 08:10:16;;;;;;;121.60;62.33;;;20.60;83.60;;;;;;4976381;28;95131;-45
2023/08/16 08:12:45;;;;;;;135.55;67.38;;;20.60;84.20;;;;;;4977417;28;96740;-48
2023/08/16 08:15:11;;;;;;;131.52;66.50;;;20.60;84.50;;;;;;4971776;28;97437;-48
2023/08/16 08:17:37;;;;;;;128.80;66.60;;;20.90;82.40;;;;;;4980486;28;98787;-46
2023/08/16 08:20:04;;;;;;;129.18;65.70;;;20.80;82.30;;;;;;4978015;28;96056;-50
2023/08/16 08:22:30;;;;;;;138.35;66.30;;;20.80;83.10;;;;;;4966718;28;96093;-55
2023/08/16 08:24:55;;;;;;;140.65;64.90;;;21.10;82.20;;;;;;4960482;28;95675;-49
2023/08/16 08:27:21;;;;;;;128.13;63.63;;;21.40;81.40;;;;;;4973878;28;95262;-46
2023/08/16 08:29:46;;;;;;;130.70;64.72;;;21.50;79.60;;;;;;4981509;28;95837;-46
2023/08/16 08:32:12;;;;;;;131.93;64.80;;;21.50;78.50;;;;;;4980533;28;95291;-51
2023/08/16 08:34:40;;;;;;;130.82;65.13;;;21.50;79.00;;;;;;4989235;28;96259;-52
2023/08/16 08:37:06;;;;;;;125.82;63.00;;;21.60;77.30;;;;;;4980971;28;98310;-52
2023/08/16 08:39:33;;;;;;;124.18;62.33;;;21.60;78.50;;;;;;4987693;28;94793;-51
2023/08/16 08:41:59;;;;;;;130.23;62.60;;;21.80;78.10;;;;;;4979044;28;95930;-51
2023/08/16 08:44:25;;;;;;;125.95;62.88;;;22.00;78.70;;;;;;4989593;28;97106;-46
2023/08/16 08:46:52;;;;;;;122.30;61.53;;;22.00;76.00;;;;;;4986518;28;95795;-52
2023/08/16 08:49:20;;;;;;;124.15;63.55;;;21.90;76.60;;;;;;4962399;28;95132;-50
2023/08/16 08:51:46;;;;;;;121.82;62.05;;;21.90;74.70;;;;;;4934592;28;94087;-48
2023/08/16 08:54:12;;;;;;;122.85;61.58;;;21.90;75.80;;;;;;4949546;28;95033;-47
2023/08/16 08:56:38;;;;;;;124.97;60.83;;;22.10;76.30;;;;;;4942981;28;100401;-52
2023/08/16 08:59:06;;;;;;;123.43;61.42;;;22.20;76.70;;;;;;4938373;28;95051;-52
2023/08/16 09:01:33;;;;;;;120.47;61.03;;;22.20;73.40;;;;;;4934133;28;95958;-53
2023/08/16 09:04:03;;;;;;;124.97;60.15;;;22.10;75.80;;;;;;4938557;28;96421;-48
2023/08/16 09:06:29;;;;;;;122.47;61.00;;;22.30;76.50;;;;;;4938104;28;96201;-53
2023/08/16 09:08:58;;;;;;;119.90;60.15;;;22.40;74.50;;;;;;4940999;28;97713;-50
2023/08/16 09:11:27;;;;;;;120.65;60.10;;;22.60;75.70;;;;;;4933989;28;100078;-49
2023/08/16 09:13:53;;;;;;;119.85;59.78;;;22.60;74.30;;;;;;4939540;28;95606;-49
2023/08/16 09:16:20;;;;;;;122.70;59.95;;;22.70;71.40;;;;;;4941341;28;99438;-51
2023/08/16 09:18:50;;;;;;;121.43;59.95;;;22.70;73.20;;;;;;4934906;28;96680;-50
2023/08/16 09:21:18;;;;;;;119.53;60.08;;;22.80;73.40;;;;;;4937106;28;97629;-54
2023/08/16 09:23:44;;;;;;;117.70;59.53;;;23.00;72.00;;;;;;4932781;28;95424;-47
2023/08/16 09:26:14;;;;;;;119.22;60.10;;;23.00;70.80;;;;;;4941614;28;95345;-46
2023/08/16 09:28:40;;;;;;;120.70;58.78;;;23.00;72.00;;;;;;4938257;28;96492;-53
2023/08/16 09:31:06;;;;;;;118.60;59.78;;;23.10;72.50;;;;;;4947514;28;95418;-53
2023/08/16 09:33:35;;;;;;;118.40;59.15;;;23.20;71.10;;;;;;4942266;28;97584;-55
2023/08/16 09:36:01;;;;;;;120.18;59.38;;;23.20;70.50;;;;;;4942279;28;96155;-55
2023/08/16 09:38:27;;;;;;;119.10;59.03;;;23.20;70.50;;;;;;4944178;28;95046;-52
2023/08/16 09:40:52;;;;;;;118.20;59.65;;;23.20;68.80;;;;;;4946891;28;95002;-52
2023/08/16 09:43:19;;;;;;;120.35;59.85;;;23.30;68.50;;;;;;4940048;28;95905;-53
2023/08/16 09:45:50;;;;;;;118.07;59.40;;;23.20;68.50;;;;;;4942498;28;94912;-53
2023/08/16 09:48:15;;;;;;;118.20;59.45;;;23.20;66.80;;;;;;4937209;28;98589;-54
2023/08/16 09:50:43;;;;;;;118.47;58.75;;;23.30;67.70;;;;;;4983006;28;95597;-47
2023/08/16 09:53:14;;;;;;;118.43;59.42;;;23.30;70.30;;;;;;4987297;28;96503;-50
2023/08/16 09:55:42;;;;;;;117.68;59.13;;;23.30;66.70;;;;;;4976360;28;95913;-51
2023/08/16 09:58:08;;;;;;;118.18;59.08;;;23.30;69.40;;;;;;4978905;28;98056;-50
2023/08/16 10:00:34;;;;;;;118.60;58.67;;;23.30;68.10;;;;;;4962767;28;95180;-53
2023/08/16 10:03:01;;;;;;;117.63;58.97;;;23.30;66.50;;;;;;4977974;28;98480;-55
2023/08/16 10:05:26;;;;;;;118.85;59.05;;;23.30;66.10;;;;;;4974104;28;100193;-48
2023/08/16 10:07:54;;;;;;;114.97;57.88;;;23.30;66.20;;;;;;4975364;28;96305;-47
2023/08/16 10:10:20;;;;;;;119.38;58.80;;;23.30;63.80;;;;;;4976268;28;95251;-47
2023/08/16 10:12:46;;;;;;;115.60;58.25;;;23.40;64.90;;;;;;4973586;28;96095;-50
2023/08/16 10:15:12;;;;;;;119.18;58.13;;;23.40;67.50;;;;;;4978525;28;94862;-47
2023/08/16 10:17:39;;;;;;;116.35;57.92;;;23.60;66.90;;;;;;4954263;28;95413;-49
2023/08/16 10:20:13;;;;;;;115.88;57.63;;;23.60;64.80;;;;;;4978887;28;94873;-50
2023/08/16 10:22:42;;;;;;;118.50;58.22;;;23.60;64.20;;;;;;4965934;28;96295;-52
2023/08/16 10:25:15;;;;;;;115.45;57.78;;;23.50;64.70;;;;;;4981158;28;95563;-53
2023/08/16 10:27:44;;;;;;;117.45;58.13;;;23.50;66.40;;;;;;4980758;28;98007;-48
2023/08/16 10:30:18;;;;;;;116.95;58.30;;;23.50;66.10;;;;;;4975587;28;96597;-53
2023/08/16 10:32:46;;;;;;;116.05;58.10;;;23.60;66.50;;;;;;4976624;28;96273;-53
2023/08/16 10:35:13;;;;;;;117.00;57.97;;;23.60;66.20;;;;;;4976401;28;95193;-48
2023/08/16 10:37:39;;;;;;;116.50;58.05;;;23.70;64.50;;;;;;4976453;28;94689;-56
2023/08/16 10:40:15;;;;;;;116.68;58.00;;;23.60;64.80;;;;;;4975193;28;95523;-54
2023/08/16 10:43:03;;;;;;;115.00;57.58;;;23.70;64.90;;;;;;4978573;28;97177;-54
2023/08/16 10:45:34;;;;;;;116.65;58.08;;;23.60;65.40;;;;;;4977556;28;96978;-54
2023/08/16 10:48:20;;;;;;;115.18;57.90;;;23.70;66.50;;;;;;4981164;28;97604;-52
2023/08/16 10:50:56;;;;;;;117.32;58.00;;;23.70;66.20;;;;;;4974268;28;96584;-51
2023/08/16 10:53:25;;;;;;;118.25;58.38;;;23.80;64.30;;;;;;4979939;28;99928;-55
2023/08/16 10:56:00;;;;;;;116.57;57.95;;;23.80;64.50;;;;;;4976834;28;95864;-53
2023/08/16 10:58:28;;;;;;;114.65;57.47;;;23.80;66.30;;;;;;4968599;28;99477;-54
2023/08/16 11:00:58;;;;;;;115.20;57.55;;;23.80;65.20;;;;;;4971790;28;95195;-59
2023/08/16 11:03:31;;;;;;;115.50;57.97;;;23.90;65.10;;;;;;4968070;28;99445;-52
2023/08/16 11:06:05;;;;;;;118.57;57.88;;;23.90;64.20;;;;;;4976422;28;96097;-57
2023/08/16 11:08:31;;;;;;;116.35;58.08;;;23.90;65.20;;;;;;4981287;28;94699;-56
2023/08/16 11:10:58;;;;;;;115.85;57.95;;;23.90;65.80;;;;;;4969730;28;94690;-56
2023/08/16 11:13:26;;;;;;;116.28;57.88;;;23.90;64.20;;;;;;4981727;28;95928;-54
2023/08/16 11:15:52;;;;;;;115.47;57.58;;;23.90;64.80;;;;;;4973406;28;95723;-52
2023/08/16 11:18:32;;;;;;;116.45;57.95;;;24.00;66.00;;;;;;4981981;28;95175;-52
2023/08/16 11:20:59;;;;;;;115.50;57.92;;;24.00;64.40;;;;;;4979914;28;95595;-52
2023/08/16 11:23:45;;;;;;;118.15;57.97;;;24.10;64.40;;;;;;4978760;28;95621;-52
2023/08/16 11:26:11;;;;;;;115.57;57.67;;;24.10;64.10;;;;;;4980042;28;96209;-53
2023/08/16 11:28:40;;;;;;;115.70;57.83;;;24.00;64.30;;;;;;4990054;28;94508;-55
2023/08/16 11:31:07;;;;;;;115.68;58.25;;;24.10;64.50;;;;;;4981915;28;95651;-63
2023/08/16 11:33:35;;;;;;;115.47;57.92;;;24.20;64.90;;;;;;4968033;28;96384;-49
2023/08/16 11:36:06;;;;;;;116.47;57.72;;;24.10;62.90;;;;;;4987245;28;97067;-50
2023/08/16 11:38:33;;;;;;;;;;;24.20;64.20;;;;;;4984900;28;95582;-52
2023/08/16 11:40:59;;;;;;;118.85;58.35;;;24.20;63.60;;;;;;4988092;28;94720;-52
2023/08/16 11:43:29;;;;;;;116.93;58.30;;;24.30;64.80;;;;;;4986263;28;95341;-52
2023/08/16 11:45:55;;;;;;;116.68;58.17;;;24.40;63.70;;;;;;4978553;28;96204;-54
2023/08/16 11:48:21;;;;;;;116.20;58.25;;;24.40;64.60;;;;;;4988821;28;94926;-56
2023/08/16 11:50:48;;;;;;;117.07;58.25;;;24.50;64.30;;;;;;4986639;28;94921;-50
2023/08/16 11:53:19;;;;;;;125.85;58.85;;;24.50;64.10;;;;;;4982569;28;95075;-51
2023/08/16 11:55:57;;;;;;;118.55;58.40;;;24.60;61.80;;;;;;4981379;28;95990;-52
2023/08/16 11:58:23;;;;;;;117.68;58.47;;;24.60;63.40;;;;;;4984921;28;96028;-50
2023/08/16 12:00:48;;;;;;;120.95;58.70;;;24.70;63.40;;;;;;4961993;28;95121;-48
2023/08/16 12:03:17;;;;;;;118.20;58.90;;;24.70;63.00;;;;;;4982447;28;96186;-46
2023/08/16 12:05:46;;;;;;;116.35;58.22;;;24.70;63.10;;;;;;4983575;28;99060;-48
2023/08/16 12:08:12;;;;;;;117.63;58.10;;;24.70;60.20;;;;;;4986910;28;94742;-50
2023/08/16 12:10:39;;;;;;;116.88;58.35;;;24.70;61.40;;;;;;4984718;28;95886;-51
2023/08/16 12:13:14;;;;;;;118.15;58.83;;;24.70;62.90;;;;;;4984600;28;100296;-55
2023/08/16 12:15:41;;;;;;;118.43;58.92;;;24.70;61.40;;;;;;4978827;28;96117;-50
2023/08/16 12:18:07;;;;;;;118.05;58.70;;;24.80;62.50;;;;;;4976650;28;97358;-48